Terminal Aerodrome Forecast
Issued by NWS Cleveland, OH

Home | Current Version | Previous Version | Graphics & Text | Print | Product List | Glossary Off
Versions: 1 2 3 4 5 6 7 8 9 10 11 12 13 14 15 16 17 18 19

000
FTUS41 KCLE 041736
TAFTOL
TAF
KTOL 041736Z 0418/0518 20010KT 6SM -SHRA BKN025 OVC035
     FM042000 30008KT 5SM -SHRA BR OVC012
     FM042200 34010KT 5SM BR SCT008 OVC012
     FM050300 36006KT 5SM BR OVC008
     FM051000 02012KT P6SM SCT008 BKN035
      TEMPO 0515/0518 BKN030=

USA.gov is the U.S. government's official web portal to all federal, state and local government web resources and services.